Bazine, Kansas
Current Conditions -  °F | °C
As of 10:15 AM on Thursday 30 Oct 2014 (Local Time) from KHYS Reporting Station
Clear Clear  
Wind Chill: 55°   Ceiling: Unl
Heat Index: 55°   Visibility: 10mi
Dew Point: 32°   Wind: 18mph
Humidity: 41%   Direction: 330°NNW
Pressure: 30.22"   Gusts: 22mph
Location:  38.44°N, 99.69°W
Report Text: KHYS 301515Z AUTO 33016G19KT 10SM CLR 13/00 A3022 RMK AO1
Loading
Personal Weather Stations






























Interactive Weather Map
Tropical Storm Tracking
New forecast layout! Learn more

10-Day Weather Forecast

Advertisements
Track Severe Weather on mobile